createdAt,value
2018-12-30T00:01:49.394Z,8.77
2018-12-30T00:04:17.151Z,8.43
2018-12-30T00:06:44.832Z,13.87
2018-12-30T00:09:12.616Z,8.77
2018-12-30T00:11:40.054Z,7.43
2018-12-30T00:14:07.497Z,10.33
2018-12-30T00:16:34.921Z,9.73
2018-12-30T00:19:02.381Z,12.33
2018-12-30T00:21:29.840Z,5.33
2018-12-30T00:23:57.266Z,6.50
2018-12-30T00:26:24.734Z,2.77
2018-12-30T00:28:52.203Z,3.97
2018-12-30T00:31:19.670Z,6.47
2018-12-30T00:33:47.133Z,10.33
2018-12-30T00:36:14.612Z,7.83
2018-12-30T00:38:42.060Z,8.50
2018-12-30T00:41:09.472Z,6.13
2018-12-30T00:43:36.954Z,9.33
2018-12-30T00:46:04.688Z,3.57
2018-12-30T00:48:32.110Z,4.93
2018-12-30T00:50:59.744Z,4.40
2018-12-30T00:53:27.170Z,4.73
2018-12-30T00:55:54.664Z,6.10
2018-12-30T00:58:22.136Z,5.87
2018-12-30T01:00:50.010Z,9.73
2018-12-30T01:03:17.491Z,8.13
2018-12-30T01:05:44.962Z,9.27
2018-12-30T01:08:12.400Z,7.60
2018-12-30T01:10:39.924Z,11.73
2018-12-30T01:13:07.392Z,10.73
2018-12-30T01:15:34.884Z,9.13
2018-12-30T01:18:02.320Z,6.43
2018-12-30T01:20:29.765Z,5.10
2018-12-30T01:22:57.232Z,5.93
2018-12-30T01:25:24.703Z,9.17
2018-12-30T01:27:52.141Z,9.80
2018-12-30T01:30:19.578Z,5.80
2018-12-30T01:32:47.037Z,7.40
2018-12-30T01:35:14.465Z,8.30
2018-12-30T01:37:41.942Z,10.27
2018-12-30T01:40:09.440Z,7.27
2018-12-30T01:42:36.906Z,5.90
2018-12-30T01:45:04.523Z,8.47
2018-12-30T01:47:32.023Z,8.73
2018-12-30T01:49:59.499Z,6.60
2018-12-30T01:52:27.314Z,12.40
2018-12-30T01:54:54.764Z,9.20
2018-12-30T01:57:22.213Z,14.20
2018-12-30T01:59:49.666Z,10.90
2018-12-30T02:02:17.103Z,3.30
2018-12-30T02:04:44.544Z,12.70
2018-12-30T02:07:12.007Z,7.03
2018-12-30T02:09:39.457Z,4.73
2018-12-30T02:12:06.826Z,7.20
2018-12-30T02:14:34.547Z,19.83
2018-12-30T02:17:02.033Z,13.07
2018-12-30T02:19:29.709Z,7.93
2018-12-30T02:21:57.134Z,16.00
2018-12-30T02:24:24.632Z,13.33
2018-12-30T02:26:52.049Z,6.00
2018-12-30T02:29:19.460Z,6.20
2018-12-30T02:31:46.923Z,4.67
2018-12-30T02:34:14.399Z,6.20
2018-12-30T02:36:41.845Z,5.50
2018-12-30T02:39:09.307Z,8.70
2018-12-30T02:41:36.723Z,4.67
2018-12-30T02:44:04.160Z,4.17
2018-12-30T02:46:31.605Z,7.77
2018-12-30T02:48:59.056Z,3.13
2018-12-30T02:51:26.500Z,5.30
2018-12-30T02:53:53.984Z,5.83
2018-12-30T02:56:21.617Z,3.17
2018-12-30T02:58:49.054Z,6.57
2018-12-30T03:01:16.525Z,5.63
2018-12-30T03:03:43.958Z,2.30
2018-12-30T03:06:11.410Z,3.83
2018-12-30T03:08:38.864Z,3.33
2018-12-30T03:11:06.196Z,13.67
2018-12-30T03:13:33.638Z,7.23
2018-12-30T03:16:01.122Z,7.53
2018-12-30T03:18:28.550Z,5.13
2018-12-30T03:20:56.019Z,3.73
2018-12-30T03:23:23.365Z,9.90
2018-12-30T03:25:50.713Z,11.10
2018-12-30T03:28:18.177Z,11.17
2018-12-30T03:30:45.626Z,7.33
2018-12-30T03:33:13.092Z,6.60
2018-12-30T03:35:40.552Z,6.77
2018-12-30T03:38:07.868Z,6.33
2018-12-30T03:40:35.208Z,5.20
2018-12-30T03:43:02.567Z,5.07
2018-12-30T03:45:30.001Z,126.77
2018-12-30T03:47:57.537Z,37.43
2018-12-30T03:50:24.920Z,20.57
2018-12-30T03:52:52.246Z,19.73
2018-12-30T03:55:19.687Z,6.67
2018-12-30T03:57:47.051Z,8.43
2018-12-30T04:00:14.526Z,7.77
2018-12-30T04:02:41.945Z,5.43
2018-12-30T04:05:09.385Z,5.80
2018-12-30T04:07:36.836Z,5.13
2018-12-30T04:10:04.624Z,8.07
2018-12-30T04:12:32.072Z,12.93
2018-12-30T04:14:59.515Z,21.37
2018-12-30T04:17:26.846Z,12.80
2018-12-30T04:19:54.179Z,10.67
2018-12-30T04:22:21.539Z,9.43
2018-12-30T04:24:48.883Z,9.03
2018-12-30T04:27:16.359Z,8.87
2018-12-30T04:29:43.765Z,7.67
2018-12-30T04:32:11.251Z,8.63
2018-12-30T04:34:38.661Z,5.20
2018-12-30T04:37:06.096Z,13.83
2018-12-30T04:39:33.557Z,11.57
2018-12-30T04:42:00.990Z,15.63
2018-12-30T04:44:28.440Z,8.63
2018-12-30T04:46:55.852Z,14.37
2018-12-30T04:49:23.209Z,12.63
2018-12-30T04:51:50.680Z,5.93
2018-12-30T04:54:17.992Z,7.00
2018-12-30T04:56:45.323Z,10.10
2018-12-30T04:59:12.773Z,7.40
2018-12-30T05:01:40.193Z,7.30
2018-12-30T05:04:07.558Z,7.50
2018-12-30T05:06:35.013Z,7.63
2018-12-30T05:09:04.244Z,20.83
2018-12-30T05:11:31.589Z,17.83
2018-12-30T05:13:59.088Z,13.60
2018-12-30T05:16:26.423Z,13.40
2018-12-30T05:18:53.894Z,8.63
2018-12-30T05:21:21.326Z,9.07
2018-12-30T05:23:48.754Z,11.10
2018-12-30T05:26:16.277Z,12.20
2018-12-30T05:28:43.770Z,14.43
2018-12-30T05:31:11.199Z,11.43
2018-12-30T05:33:38.694Z,9.07
2018-12-30T05:36:06.038Z,6.93
2018-12-30T05:38:33.492Z,7.47
2018-12-30T05:41:00.931Z,7.70
2018-12-30T05:43:28.411Z,8.97
2018-12-30T05:45:55.857Z,8.83
2018-12-30T05:48:23.293Z,7.97
2018-12-30T05:50:50.715Z,9.17
2018-12-30T05:53:18.050Z,8.83
2018-12-30T05:55:45.466Z,9.63
2018-12-30T05:58:12.844Z,17.60
2018-12-30T06:00:40.278Z,12.17
2018-12-30T06:03:07.751Z,9.67
2018-12-30T06:05:35.212Z,6.37
2018-12-30T06:08:02.638Z,14.07
2018-12-30T06:10:29.969Z,12.07
2018-12-30T06:12:57.465Z,12.13
2018-12-30T06:15:24.881Z,7.00
2018-12-30T06:17:52.196Z,7.93
2018-12-30T06:20:19.548Z,9.10
2018-12-30T06:22:49.685Z,12.40
2018-12-30T06:25:16.302Z,12.10
2018-12-30T06:27:43.732Z,16.63
2018-12-30T06:30:11.181Z,11.33
2018-12-30T06:32:38.648Z,8.73
2018-12-30T06:35:06.098Z,11.37
2018-12-30T06:37:33.602Z,8.57
2018-12-30T06:40:01.082Z,6.87
2018-12-30T06:42:28.637Z,12.40
2018-12-30T06:44:56.017Z,10.37
2018-12-30T06:47:23.448Z,9.83
2018-12-30T06:49:50.893Z,13.77
2018-12-30T06:52:18.385Z,8.90
2018-12-30T06:54:46.064Z,11.00
2018-12-30T06:57:13.488Z,16.67
2018-12-30T06:59:40.936Z,11.60
2018-12-30T07:02:08.402Z,9.00
2018-12-30T07:04:35.878Z,14.33
2018-12-30T07:07:03.299Z,8.80
2018-12-30T07:09:30.746Z,11.50
2018-12-30T07:11:58.188Z,5.63
2018-12-30T07:14:25.535Z,7.47
2018-12-30T07:16:52.986Z,11.90
2018-12-30T07:19:20.339Z,6.30
2018-12-30T07:21:47.780Z,10.70
2018-12-30T07:24:15.256Z,16.87
2018-12-30T07:26:42.714Z,9.90
2018-12-30T07:29:10.050Z,9.60
2018-12-30T07:31:37.518Z,14.03
2018-12-30T07:34:04.846Z,15.40
2018-12-30T07:36:32.342Z,12.40
2018-12-30T07:38:59.789Z,7.67
2018-12-30T07:41:27.306Z,9.90
2018-12-30T07:43:54.761Z,14.07
2018-12-30T07:46:22.250Z,12.47
2018-12-30T07:48:49.918Z,6.90
2018-12-30T07:51:17.360Z,7.77
2018-12-30T07:53:44.778Z,14.43
2018-12-30T07:56:12.162Z,12.23
2018-12-30T07:58:39.620Z,8.10
2018-12-30T08:01:06.945Z,12.40
2018-12-30T08:03:34.328Z,14.93
2018-12-30T08:06:01.762Z,11.30
2018-12-30T08:08:29.107Z,15.43
2018-12-30T08:10:56.461Z,15.37
2018-12-30T08:13:23.789Z,9.87
2018-12-30T08:15:51.172Z,12.07
2018-12-30T08:18:18.539Z,10.93
2018-12-30T08:20:45.997Z,10.87
2018-12-30T08:23:13.506Z,6.23
2018-12-30T08:25:41.065Z,10.13
2018-12-30T08:28:08.541Z,12.97
2018-12-30T08:30:35.891Z,10.33
2018-12-30T08:33:03.318Z,17.87
2018-12-30T08:35:30.701Z,15.37
2018-12-30T08:37:58.132Z,11.30
2018-12-30T08:40:25.476Z,10.90
2018-12-30T08:42:52.936Z,17.37
2018-12-30T08:45:20.388Z,12.67
2018-12-30T08:47:47.823Z,14.17
2018-12-30T08:50:15.173Z,16.20
2018-12-30T08:52:42.545Z,17.23
2018-12-30T08:55:10.026Z,13.77
2018-12-30T08:57:37.511Z,13.50
2018-12-30T09:00:05.276Z,20.30
2018-12-30T09:02:32.706Z,9.23
2018-12-30T09:05:00.152Z,7.03
2018-12-30T09:07:27.616Z,19.20
2018-12-30T09:09:55.052Z,8.40
2018-12-30T09:12:22.404Z,15.97
2018-12-30T09:14:49.764Z,11.80
2018-12-30T09:17:18.363Z,14.00
2018-12-30T09:19:45.858Z,9.83
2018-12-30T09:22:13.230Z,12.07
2018-12-30T09:24:40.584Z,14.37
2018-12-30T09:27:07.940Z,9.63
2018-12-30T09:29:35.301Z,8.87
2018-12-30T09:32:03.048Z,9.87
2018-12-30T09:34:30.523Z,12.50
2018-12-30T09:36:57.983Z,8.40
2018-12-30T09:39:25.316Z,11.50
2018-12-30T09:41:52.635Z,13.77
2018-12-30T09:44:20.089Z,12.50
2018-12-30T09:46:47.442Z,13.27
2018-12-30T09:49:14.875Z,10.13
2018-12-30T09:51:43.016Z,16.53
2018-12-30T09:54:10.440Z,9.13
2018-12-30T09:56:37.812Z,13.43
2018-12-30T09:59:05.228Z,12.70
2018-12-30T10:01:32.585Z,12.10
2018-12-30T10:03:59.918Z,18.67
2018-12-30T10:06:27.369Z,13.13
2018-12-30T10:08:54.714Z,8.57
2018-12-30T10:11:22.158Z,16.70
2018-12-30T10:13:49.627Z,11.07
2018-12-30T10:16:17.090Z,13.80
2018-12-30T10:18:44.431Z,16.63
2018-12-30T10:21:11.773Z,12.87
2018-12-30T10:23:39.237Z,13.57
2018-12-30T10:26:06.755Z,12.37
2018-12-30T10:28:34.187Z,13.00
2018-12-30T10:31:01.625Z,12.50
2018-12-30T10:33:29.088Z,17.67
2018-12-30T10:35:56.439Z,13.40
2018-12-30T10:38:23.919Z,15.10
2018-12-30T10:40:51.263Z,12.30
2018-12-30T10:43:19.168Z,15.57
2018-12-30T10:45:46.631Z,15.53
2018-12-30T10:48:14.112Z,15.30
2018-12-30T10:50:41.594Z,18.47
2018-12-30T10:53:08.999Z,18.30
2018-12-30T10:55:37.304Z,17.13
2018-12-30T10:58:04.749Z,11.50
2018-12-30T11:00:32.227Z,28.53
2018-12-30T11:02:59.718Z,18.43
2018-12-30T11:05:27.170Z,16.17
2018-12-30T11:07:54.611Z,12.97
2018-12-30T11:10:22.109Z,14.53
2018-12-30T11:12:49.529Z,13.57
2018-12-30T11:15:16.886Z,12.23
2018-12-30T11:17:44.333Z,12.73
2018-12-30T11:20:11.786Z,14.07
2018-12-30T11:22:39.148Z,12.27
2018-12-30T11:25:06.526Z,10.73
2018-12-30T11:27:33.969Z,10.93
2018-12-30T11:30:01.333Z,15.93
2018-12-30T11:32:48.263Z,15.10
2018-12-30T11:35:15.735Z,15.90
2018-12-30T11:37:43.082Z,8.30
2018-12-30T11:40:10.543Z,13.27
2018-12-30T11:42:38.061Z,11.07
2018-12-30T11:45:05.608Z,10.93
2018-12-30T11:47:33.067Z,13.83
2018-12-30T11:50:00.544Z,11.33
2018-12-30T11:52:27.979Z,12.33
2018-12-30T11:54:55.351Z,16.53
2018-12-30T11:57:22.747Z,20.63
2018-12-30T11:59:50.246Z,20.70
2018-12-30T12:02:24.075Z,17.53
2018-12-30T12:04:46.950Z,19.43
2018-12-30T12:07:14.302Z,21.17
2018-12-30T12:09:41.853Z,19.73
2018-12-30T12:12:09.347Z,18.00
2018-12-30T12:14:36.803Z,20.83
2018-12-30T12:17:04.270Z,19.40
2018-12-30T12:19:31.624Z,17.20
2018-12-30T12:21:59.018Z,19.80
2018-12-30T12:24:26.464Z,17.53
2018-12-30T12:26:53.900Z,18.33
2018-12-30T12:29:21.362Z,19.97
2018-12-30T12:31:48.881Z,18.40
2018-12-30T12:34:17.554Z,22.63
2018-12-30T12:36:45.099Z,24.30
2018-12-30T12:39:12.550Z,19.60
2018-12-30T12:41:40.035Z,16.67
2018-12-30T12:44:07.480Z,20.93
2018-12-30T12:46:34.950Z,25.13
2018-12-30T12:49:03.019Z,17.43
2018-12-30T12:51:30.452Z,16.10
2018-12-30T12:53:57.966Z,16.57
2018-12-30T12:56:25.460Z,19.87
2018-12-30T12:58:52.901Z,17.33
2018-12-30T13:01:20.271Z,16.97
2018-12-30T13:03:47.780Z,15.50
2018-12-30T13:06:15.261Z,18.73
2018-12-30T13:08:42.714Z,28.57
2018-12-30T13:11:10.386Z,16.17
2018-12-30T13:13:37.812Z,18.43
2018-12-30T13:16:05.251Z,16.10
2018-12-30T13:18:32.605Z,20.43
2018-12-30T13:21:00.290Z,17.87
2018-12-30T13:23:27.750Z,16.73
2018-12-30T13:25:55.196Z,15.37
2018-12-30T13:28:22.554Z,18.03
2018-12-30T13:30:49.998Z,21.40
2018-12-30T13:33:17.336Z,22.87
2018-12-30T13:35:44.702Z,23.87
2018-12-30T13:38:12.162Z,21.30
2018-12-30T13:40:39.515Z,18.63
2018-12-30T13:43:06.971Z,21.07
2018-12-30T13:45:34.444Z,17.83
2018-12-30T13:48:01.887Z,15.80
2018-12-30T13:50:29.298Z,17.17
2018-12-30T13:52:56.789Z,18.47
2018-12-30T13:55:24.243Z,16.83
2018-12-30T13:57:51.795Z,18.00
2018-12-30T14:00:19.328Z,19.13
2018-12-30T14:02:46.826Z,25.67
2018-12-30T14:05:14.335Z,20.57
2018-12-30T14:07:41.793Z,18.47
2018-12-30T14:10:09.309Z,17.20
2018-12-30T14:12:36.776Z,17.07
2018-12-30T14:15:05.026Z,17.80
2018-12-30T14:17:32.812Z,17.23
2018-12-30T14:20:00.316Z,15.53
2018-12-30T14:22:27.822Z,17.87
2018-12-30T14:24:56.007Z,21.63
2018-12-30T14:27:23.372Z,14.53
2018-12-30T14:29:50.719Z,13.23
2018-12-30T14:32:18.193Z,17.93
2018-12-30T14:34:45.546Z,17.43
2018-12-30T14:37:12.998Z,18.60
2018-12-30T14:39:40.551Z,16.30
2018-12-30T14:42:07.909Z,18.40
2018-12-30T14:44:35.299Z,22.10
2018-12-30T14:47:02.752Z,16.87
2018-12-30T14:49:30.184Z,16.17
2018-12-30T14:51:57.592Z,16.13
2018-12-30T14:54:25.062Z,14.10
2018-12-30T14:56:52.527Z,17.97
2018-12-30T14:59:20.001Z,17.90
2018-12-30T15:01:47.465Z,16.83
2018-12-30T15:04:14.966Z,14.10
2018-12-30T15:06:42.398Z,20.53
2018-12-30T15:09:09.767Z,17.60
2018-12-30T15:11:37.215Z,21.00
2018-12-30T15:14:04.681Z,15.67
2018-12-30T15:16:32.158Z,13.20
2018-12-30T15:18:59.554Z,30.97
2018-12-30T15:21:27.027Z,21.07
2018-12-30T15:23:54.456Z,23.60
2018-12-30T15:26:21.934Z,18.33
2018-12-30T15:28:49.466Z,18.83
2018-12-30T15:31:16.895Z,20.93
2018-12-30T15:33:44.343Z,20.60
2018-12-30T15:36:11.777Z,18.13
2018-12-30T15:38:39.159Z,21.47
2018-12-30T15:41:06.646Z,23.37
2018-12-30T15:43:34.383Z,14.67
2018-12-30T15:46:01.859Z,17.53
2018-12-30T15:48:29.433Z,21.87
2018-12-30T15:50:56.877Z,20.70
2018-12-30T15:53:24.514Z,16.60
2018-12-30T15:55:51.975Z,17.00
2018-12-30T15:58:19.356Z,16.90
2018-12-30T16:00:46.725Z,19.83
2018-12-30T16:03:14.141Z,19.60
2018-12-30T16:05:41.587Z,20.17
2018-12-30T16:08:10.938Z,25.83
2018-12-30T16:10:38.498Z,16.90
2018-12-30T16:13:05.923Z,20.07
2018-12-30T16:15:34.137Z,21.90
2018-12-30T16:18:01.565Z,22.50
2018-12-30T16:20:28.915Z,20.93
2018-12-30T16:22:56.395Z,26.83
2018-12-30T16:25:27.319Z,24.70
2018-12-30T16:27:53.019Z,22.47
2018-12-30T16:30:20.499Z,20.73
2018-12-30T16:32:47.809Z,15.80
2018-12-30T16:35:15.177Z,22.37
2018-12-30T16:37:42.706Z,22.03
2018-12-30T16:40:10.139Z,25.90
2018-12-30T16:42:37.632Z,26.67
2018-12-30T16:45:05.496Z,24.00
2018-12-30T16:47:33.175Z,19.63
2018-12-30T16:50:00.665Z,16.73
2018-12-30T16:52:28.179Z,19.50
2018-12-30T16:54:55.607Z,17.97
2018-12-30T16:57:23.065Z,27.17
2018-12-30T16:59:50.486Z,23.27
2018-12-30T17:02:17.971Z,16.57
2018-12-30T17:04:45.459Z,25.20
2018-12-30T17:07:12.935Z,26.47
2018-12-30T17:09:40.417Z,21.27
2018-12-30T17:12:07.875Z,20.60
2018-12-30T17:14:35.332Z,22.07
2018-12-30T17:17:02.677Z,20.50
2018-12-30T17:19:30.037Z,21.77
2018-12-30T17:21:57.491Z,24.87
2018-12-30T17:24:24.837Z,24.13
2018-12-30T17:26:52.209Z,19.13
2018-12-30T17:29:19.712Z,18.20
2018-12-30T17:31:47.160Z,17.27
2018-12-30T17:34:14.623Z,19.00
2018-12-30T17:36:43.224Z,18.80
2018-12-30T17:39:10.558Z,19.27
2018-12-30T17:41:38.020Z,18.10
2018-12-30T17:44:05.429Z,14.87
2018-12-30T17:46:32.896Z,18.93
2018-12-30T17:49:00.376Z,17.20
2018-12-30T17:51:27.764Z,18.53
2018-12-30T17:53:55.233Z,19.10
2018-12-30T17:56:22.702Z,19.60
2018-12-30T17:58:50.186Z,12.97
2018-12-30T18:01:17.684Z,11.43
2018-12-30T18:03:45.056Z,15.03
2018-12-30T18:06:12.515Z,11.63
2018-12-30T18:08:39.975Z,11.80
2018-12-30T18:11:07.409Z,13.27
2018-12-30T18:13:34.962Z,14.57
2018-12-30T18:16:02.383Z,17.60
2018-12-30T18:18:29.837Z,17.67
2018-12-30T18:20:57.204Z,17.73
2018-12-30T18:23:24.564Z,16.23
2018-12-30T18:26:10.097Z,22.23
2018-12-30T18:28:37.528Z,20.93
2018-12-30T18:31:04.895Z,18.47
2018-12-30T18:33:40.361Z,15.60
2018-12-30T18:36:07.829Z,14.17
2018-12-30T18:38:35.232Z,11.93
2018-12-30T18:41:02.641Z,15.03
2018-12-30T18:43:48.443Z,16.10
2018-12-30T18:46:15.790Z,14.97
2018-12-30T18:49:01.502Z,16.07
2018-12-30T18:51:28.976Z,18.60
2018-12-30T18:54:14.823Z,14.30
2018-12-30T18:56:42.262Z,15.37
2018-12-30T18:59:46.508Z,20.10
2018-12-30T19:02:13.848Z,18.07
2018-12-30T19:04:41.198Z,25.57
2018-12-30T19:07:26.902Z,28.40
2018-12-30T19:09:54.353Z,18.13
2018-12-30T19:12:40.103Z,23.27
2018-12-30T19:15:07.547Z,24.07
2018-12-30T19:17:53.422Z,23.00
2018-12-30T19:20:20.745Z,20.80
2018-12-30T19:22:48.171Z,27.73
2018-12-30T19:25:15.587Z,42.80
2018-12-30T19:28:01.379Z,21.73
2018-12-30T19:30:28.858Z,26.57
2018-12-30T19:32:56.311Z,24.50
2018-12-30T19:35:23.791Z,24.17
2018-12-30T19:38:09.585Z,40.03
2018-12-30T19:40:36.942Z,27.93
2018-12-30T19:43:04.357Z,24.50
2018-12-30T19:45:31.716Z,28.70
2018-12-30T19:48:17.491Z,28.37
2018-12-30T19:50:45.207Z,22.57
2018-12-30T19:53:12.903Z,42.67
2018-12-30T19:55:40.646Z,31.07
2018-12-30T19:58:08.325Z,25.73
2018-12-30T20:00:36.066Z,24.37
2018-12-30T20:03:03.799Z,30.43
2018-12-30T20:05:31.437Z,24.83
2018-12-30T20:07:59.070Z,23.53
2018-12-30T20:10:26.727Z,34.40
2018-12-30T20:12:54.486Z,28.10
2018-12-30T20:15:22.075Z,30.53
2018-12-30T20:17:49.771Z,27.33
2018-12-30T20:20:17.342Z,25.23
2018-12-30T20:22:44.905Z,29.87
2018-12-30T20:25:12.597Z,32.30
2018-12-30T20:27:40.381Z,31.93
2018-12-30T20:30:08.230Z,29.83
2018-12-30T20:32:35.982Z,28.93
2018-12-30T20:35:03.847Z,23.73
2018-12-30T20:37:31.493Z,25.90
2018-12-30T20:39:59.137Z,28.63
2018-12-30T20:42:26.886Z,30.67
2018-12-30T20:44:54.610Z,29.13
2018-12-30T20:47:22.188Z,31.97
2018-12-30T20:49:49.682Z,32.03
2018-12-30T20:52:17.124Z,29.40
2018-12-30T20:54:44.517Z,32.73
2018-12-30T20:57:11.885Z,27.90
2018-12-30T20:59:39.342Z,29.63
2018-12-30T21:02:06.858Z,31.33
2018-12-30T21:04:34.358Z,36.20
2018-12-30T21:07:01.803Z,38.47
2018-12-30T21:09:29.496Z,37.53
2018-12-30T21:11:56.989Z,36.87
2018-12-30T21:14:24.531Z,34.23
2018-12-30T21:16:51.971Z,42.10
2018-12-30T21:19:19.436Z,35.87
2018-12-30T21:21:46.836Z,32.93
2018-12-30T21:24:14.361Z,40.20
2018-12-30T21:26:45.378Z,39.57
2018-12-30T21:29:11.023Z,44.27
2018-12-30T21:31:38.510Z,42.83
2018-12-30T21:34:05.987Z,40.80
2018-12-30T21:36:33.451Z,35.30
2018-12-30T21:39:00.796Z,37.17
2018-12-30T21:41:28.243Z,33.63
2018-12-30T21:43:55.731Z,32.67
2018-12-30T21:46:23.088Z,34.27
2018-12-30T21:48:50.427Z,29.13
2018-12-30T21:51:17.876Z,34.13
2018-12-30T21:53:45.238Z,27.20
2018-12-30T21:56:12.596Z,34.37
2018-12-30T21:58:40.072Z,28.90
2018-12-30T22:01:07.505Z,26.00
2018-12-30T22:03:34.847Z,26.63
2018-12-30T22:06:02.287Z,35.27
2018-12-30T22:08:29.707Z,29.33
2018-12-30T22:10:57.138Z,31.67
2018-12-30T22:13:24.520Z,27.50
2018-12-30T22:15:52.001Z,34.67
2018-12-30T22:18:19.486Z,31.43
2018-12-30T22:20:46.848Z,31.33
2018-12-30T22:23:14.322Z,32.70
2018-12-30T22:25:42.277Z,33.27
2018-12-30T22:28:09.886Z,31.53
2018-12-30T22:30:37.210Z,31.60
2018-12-30T22:33:04.663Z,38.03
2018-12-30T22:35:31.999Z,29.03
2018-12-30T22:37:59.331Z,30.43
2018-12-30T22:40:26.662Z,27.73
2018-12-30T22:42:54.134Z,33.73
2018-12-30T22:45:21.626Z,30.37
2018-12-30T22:47:49.069Z,29.60
2018-12-30T22:50:16.543Z,27.57
2018-12-30T22:52:43.891Z,29.33
2018-12-30T22:55:11.340Z,31.03
2018-12-30T22:57:38.816Z,24.67
2018-12-30T23:00:11.061Z,27.67
2018-12-30T23:02:38.419Z,26.40
2018-12-30T23:05:06.098Z,27.80
2018-12-30T23:07:33.531Z,30.07
2018-12-30T23:10:00.963Z,29.33
2018-12-30T23:12:28.412Z,27.20
2018-12-30T23:14:55.835Z,25.30
2018-12-30T23:17:23.235Z,24.73
2018-12-30T23:19:50.581Z,30.13
2018-12-30T23:22:17.934Z,24.07
2018-12-30T23:24:45.400Z,24.10
2018-12-30T23:27:13.029Z,28.17
2018-12-30T23:29:40.473Z,22.87
2018-12-30T23:32:07.939Z,29.03
2018-12-30T23:34:35.259Z,26.77
2018-12-30T23:37:02.670Z,29.70
2018-12-30T23:39:30.138Z,30.90
2018-12-30T23:41:57.573Z,23.53
2018-12-30T23:44:24.937Z,33.00
2018-12-30T23:46:52.403Z,30.47
2018-12-30T23:49:19.831Z,29.57
2018-12-30T23:51:47.193Z,29.23
2018-12-30T23:54:14.609Z,24.67
2018-12-30T23:56:42.115Z,30.93
2018-12-30T23:59:09.567Z,32.07
